Time;durP1;ratioP1;P1;durP2;ratioP2;P2;SDS_P1;SDS_P2;PMS_P1;PMS_P2;Temp;Humidity;BMP_temperature;BMP_pressure;BME280_temperature;BME280_humidity;BME280_pressure;Samples;Min_cycle;Max_cycle;Signal;HPM_P1;HPM_P2
2021/11/02 00:00:21;;;;;;;0.20;0.20;;;;;;;9.30;89.19;99016.53;5083787;28;20058;-71
2021/11/02 00:02:47;;;;;;;0.30;0.30;;;;;;;9.28;89.30;99006.22;5084413;28;20032;-71
2021/11/02 00:05:13;;;;;;;0.20;0.20;;;;;;;9.24;88.94;99003.75;5084729;28;20025;-69
2021/11/02 00:07:40;;;;;;;1.73;1.65;;;;;;;9.21;89.32;99011.59;5084564;28;20021;-70
2021/11/02 00:10:07;;;;;;;0.20;0.20;;;;;;;9.11;89.88;99009.25;5084611;28;20020;-71
2021/11/02 00:12:33;;;;;;;0.30;0.30;;;;;;;9.14;90.08;99009.16;5084073;28;20024;-71
2021/11/02 00:14:58;;;;;;;0.30;0.30;;;;;;;9.14;89.87;99016.94;5084335;28;20023;-71
2021/11/02 00:17:26;;;;;;;0.30;0.30;;;;;;;9.24;89.33;99012.38;5084274;28;20028;-71
2021/11/02 00:19:57;;;;;;;0.30;0.30;;;;;;;9.21;89.29;99017.63;5084404;28;20020;-71
2021/11/02 00:22:24;;;;;;;0.30;0.30;;;;;;;9.11;89.54;99011.81;5081847;28;20025;-71
2021/11/02 00:27:23;;;;;;;0.30;0.30;;;;;;;9.21;89.25;99024.53;5084236;28;20024;-71
2021/11/02 00:29:48;;;;;;;18.95;2.35;;;;;;;9.20;88.86;99028.84;5083935;28;20016;-71
2021/11/02 00:32:14;;;;;;;0.45;0.45;;;;;;;9.15;88.86;99020.38;5083746;28;20017;-70
2021/11/02 00:34:40;;;;;;;0.30;0.30;;;;;;;9.14;89.04;99029.88;5099744;28;20094;-71
2021/11/02 00:37:06;;;;;;;0.30;0.30;;;;;;;9.12;88.51;99015.28;5083756;28;20032;-71
2021/11/02 00:39:32;;;;;;;0.30;0.30;;;;;;;9.10;88.82;99020.50;5083947;28;20107;-71
2021/11/02 00:41:57;;;;;;;1.67;1.58;;;;;;;9.09;88.57;99018.78;5083742;28;20053;-71
2021/11/02 00:44:23;;;;;;;0.30;0.30;;;;;;;9.00;88.80;99024.19;5083856;28;20079;-71
2021/11/02 00:46:51;;;;;;;0.30;0.30;;;;;;;8.95;88.90;99018.25;5083982;28;20032;-71
2021/11/02 00:49:18;;;;;;;0.30;0.30;;;;;;;9.03;88.84;99021.50;5083706;28;20021;-70
2021/11/02 00:51:45;;;;;;;0.30;0.30;;;;;;;8.95;88.60;99015.66;5083510;28;20112;-71
2021/11/02 00:54:12;;;;;;;0.30;0.30;;;;;;;8.96;88.78;99022.56;5083596;28;20384;-70
2021/11/02 00:56:38;;;;;;;0.30;0.30;;;;;;;8.87;89.08;99027.06;5082273;28;20063;-70
2021/11/02 00:59:03;;;;;;;0.55;0.55;;;;;;;8.91;89.00;99038.19;5083606;28;20017;-70
2021/11/02 01:01:28;;;;;;;0.20;0.20;;;;;;;8.88;89.04;99027.94;5083410;28;20024;-70
2021/11/02 01:03:54;;;;;;;0.40;0.40;;;;;;;8.84;89.36;99029.72;5083617;28;20058;-71
2021/11/02 01:06:20;;;;;;;2.85;1.42;;;;;;;8.81;89.45;99022.03;5083223;28;20095;-71
2021/11/02 01:08:46;;;;;;;0.55;0.55;;;;;;;8.82;89.52;99022.91;5083586;28;20036;-70
2021/11/02 01:11:11;;;;;;;5.20;3.28;;;;;;;8.80;89.61;99020.34;5083483;28;20016;-70
2021/11/02 01:13:37;;;;;;;0.30;0.30;;;;;;;8.83;89.64;99015.09;5083659;28;20021;-71
2021/11/02 01:16:03;;;;;;;0.20;0.20;;;;;;;8.83;89.48;99011.66;5082141;28;20123;-72
2021/11/02 01:18:28;;;;;;;0.30;0.30;;;;;;;8.83;89.24;99012.50;5083412;28;20032;-71
2021/11/02 01:20:54;;;;;;;0.28;0.28;;;;;;;8.79;89.68;99006.53;5083497;28;20024;-71
2021/11/02 01:23:19;;;;;;;0.20;0.20;;;;;;;8.76;89.51;99009.22;5082032;28;20480;-72
2021/11/02 01:25:45;;;;;;;0.30;0.30;;;;;;;8.84;89.56;99014.19;5098907;28;20111;-71
2021/11/02 01:28:10;;;;;;;0.30;0.30;;;;;;;8.82;89.32;99005.63;5098925;28;20083;-71
2021/11/02 01:30:37;;;;;;;0.50;0.50;;;;;;;8.90;89.18;99006.28;5083236;28;20070;-71
2021/11/02 01:33:02;;;;;;;0.50;0.50;;;;;;;8.85;89.40;99009.88;5083124;28;20033;-71
2021/11/02 01:35:29;;;;;;;0.32;0.32;;;;;;;8.86;89.50;99007.25;5082976;28;20056;-71
2021/11/02 01:37:55;;;;;;;0.30;0.30;;;;;;;8.84;89.61;99010.75;5083232;28;20400;-71
2021/11/02 01:40:21;;;;;;;0.30;0.30;;;;;;;8.82;89.59;99007.38;5083094;28;20025;-72
2021/11/02 01:42:47;;;;;;;0.35;0.35;;;;;;;8.70;89.74;99004.19;5082931;28;20024;-71
2021/11/02 01:45:14;;;;;;;0.30;0.30;;;;;;;8.72;89.98;99009.31;5082227;28;20051;-71
2021/11/02 01:47:43;;;;;;;0.20;0.20;;;;;;;8.66;90.29;99003.38;5082176;28;20051;-71
2021/11/02 01:50:09;;;;;;;1.08;1.08;;;;;;;8.83;89.64;99002.16;5082262;28;20017;-71
2021/11/02 01:52:34;;;;;;;0.63;0.63;;;;;;;8.77;89.83;99000.56;5082844;28;20021;-71
2021/11/02 01:55:01;;;;;;;0.65;0.65;;;;;;;8.71;90.01;99005.88;5082956;28;20036;-71
2021/11/02 01:57:27;;;;;;;0.30;0.30;;;;;;;8.77;90.04;99010.06;5081625;28;20032;-71
2021/11/02 01:59:53;;;;;;;0.30;0.30;;;;;;;8.79;89.76;98995.34;5083025;28;20030;-71
2021/11/02 02:02:34;;;;;;;1.20;1.20;;;;;;;8.93;88.75;99003.63;5082599;28;20028;-71
2021/11/02 02:05:25;;;;;;;0.20;0.20;;;;;;;8.90;89.32;99008.88;5083192;28;20029;-71
2021/11/02 02:08:12;;;;;;;0.20;0.20;;;;;;;8.86;89.00;99004.66;5082822;28;20070;-71
2021/11/02 02:10:53;;;;;;;0.30;0.30;;;;;;;8.69;90.20;99002.47;5082757;28;20035;-71
2021/11/02 02:13:40;;;;;;;0.28;0.28;;;;;;;8.89;89.65;99004.59;5082959;28;20099;-71
2021/11/02 02:16:09;;;;;;;0.40;0.40;;;;;;;8.78;90.32;99001.41;5082990;28;20289;-71
2021/11/02 02:18:42;;;;;;;0.30;0.30;;;;;;;8.83;90.09;99002.16;5082793;28;20048;-71
2021/11/02 02:21:26;;;;;;;0.30;0.30;;;;;;;8.79;90.22;98998.78;5082872;28;20049;-71
2021/11/02 02:24:09;;;;;;;0.20;0.20;;;;;;;8.74;90.39;99005.78;5082698;28;20060;-71
2021/11/02 02:26:46;;;;;;;0.20;0.20;;;;;;;8.83;90.58;98998.72;5082909;28;20020;-71
2021/11/02 02:29:13;;;;;;;5.10;1.65;;;;;;;8.83;89.88;98986.63;5082734;28;20112;-70
2021/11/02 02:31:42;;;;;;;0.30;0.30;;;;;;;8.99;89.08;98999.19;5082750;28;20464;-71
2021/11/02 02:34:12;;;;;;;0.30;0.30;;;;;;;8.94;89.46;99004.47;5082370;28;20096;-71
2021/11/02 02:36:39;;;;;;;0.30;0.30;;;;;;;8.87;89.65;98997.72;5082414;28;20044;-71
2021/11/02 02:39:08;;;;;;;0.20;0.20;;;;;;;8.93;89.63;99001.03;5082546;28;20024;-71
2021/11/02 02:41:35;;;;;;;0.20;0.20;;;;;;;8.97;89.31;99006.13;5082355;28;20025;-71
2021/11/02 02:44:00;;;;;;;2.15;2.05;;;;;;;8.80;90.02;99000.47;5082477;28;20400;-71
2021/11/02 02:46:27;;;;;;;0.20;0.20;;;;;;;8.91;89.78;98996.78;5083764;28;20033;-71
2021/11/02 02:48:55;;;;;;;0.20;0.20;;;;;;;8.96;89.55;99001.84;5086214;28;20019;-71
2021/11/02 02:51:22;;;;;;;0.30;0.30;;;;;;;8.97;89.75;99000.97;5085665;28;20024;-71
2021/11/02 02:53:49;;;;;;;0.30;0.30;;;;;;;8.88;89.74;99002.03;5085943;28;20017;-71
2021/11/02 02:56:17;;;;;;;0.30;0.30;;;;;;;8.93;89.42;99008.78;5086072;28;20021;-71
2021/11/02 02:58:46;;;;;;;0.40;0.40;;;;;;;9.03;89.36;99017.19;5085946;28;20017;-71
2021/11/02 03:01:15;;;;;;;0.30;0.30;;;;;;;9.12;88.97;99010.09;5085821;28;20050;-72
2021/11/02 03:03:48;;;;;;;0.30;0.30;;;;;;;9.11;89.29;99011.81;5085181;28;20021;-71
2021/11/02 03:06:16;;;;;;;0.52;0.52;;;;;;;9.11;88.83;99008.38;5085631;28;20126;-71
2021/11/02 03:08:42;;;;;;;0.30;0.30;;;;;;;9.26;87.87;99009.75;5084971;28;20032;-71
2021/11/02 03:11:11;;;;;;;0.43;0.43;;;;;;;9.21;87.98;99017.63;5085785;28;20021;-71
2021/11/02 03:13:39;;;;;;;0.30;0.30;;;;;;;9.10;88.23;99014.44;5085599;28;20016;-71
2021/11/02 03:16:08;;;;;;;3.60;1.15;;;;;;;9.01;88.99;99012.97;5085438;28;20026;-71
2021/11/02 03:49:16;;;;;;;0.30;0.30;;;;;;;8.63;90.19;99013.81;5062225;28;20028;-71
2021/11/02 04:22:21;;;;;;;0.30;0.30;;;;;;;8.57;90.59;99015.69;5061745;28;20025;-71
2021/11/02 04:24:47;;;;;;;0.20;0.20;;;;;;;8.47;90.45;99036.56;5084109;28;20396;-70
2021/11/02 04:35:15;;;;;;;0.22;0.22;;;;;;;8.48;90.21;99038.25;5083945;28;20269;-71
2021/11/02 05:56:25;;;;;;;0.55;0.55;;;;;;;8.47;89.52;99061.56;5039999;28;20057;-75
2021/11/02 05:59:11;;;;;;;0.30;0.30;;;;;;;8.61;88.99;99058.72;5040077;28;20556;-75
2021/11/02 06:29:51;;;;;;;0.30;0.30;;;;;;;8.39;88.58;99080.69;5045514;28;20072;-72
2021/11/02 06:32:21;;;;;;;0.30;0.30;;;;;;;8.31;88.79;99070.50;5085992;28;20028;-73
2021/11/02 06:35:06;;;;;;;0.85;0.85;;;;;;;8.23;89.12;99074.13;5086210;28;20024;-73
2021/11/02 07:00:46;;;;;;;0.40;0.40;;;;;;;8.30;89.20;99088.63;4983733;28;20058;-74
2021/11/02 07:17:54;;;;;;;0.40;0.40;;;;;;;8.30;89.04;99096.41;4983813;28;20098;-73
2021/11/02 08:47:29;;;;;;;0.73;0.73;;;;;;;8.98;87.26;99094.09;5084272;28;20051;-74
2021/11/02 08:49:54;;;;;;;0.40;0.40;;;;;;;9.08;85.93;99101.66;5083941;28;20553;-74
2021/11/02 08:52:21;;;;;;;0.40;0.40;;;;;;;8.84;87.09;99101.34;5083416;28;20024;-74
2021/11/02 08:54:49;;;;;;;0.28;0.28;;;;;;;8.93;86.80;99094.22;5083816;28;20016;-73
2021/11/02 08:57:16;;;;;;;0.30;0.30;;;;;;;8.90;87.45;99094.28;5083708;28;20020;-74
2021/11/02 08:59:42;;;;;;;0.30;0.30;;;;;;;9.23;85.72;99090.97;5083707;28;20052;-73
2021/11/02 09:02:10;;;;;;;0.22;0.22;;;;;;;8.93;86.57;99094.22;5083487;28;20481;-72
2021/11/02 09:04:45;;;;;;;0.95;0.90;;;;;;;8.83;87.89;99095.31;5083633;28;20027;-73
2021/11/02 09:07:20;;;;;;;0.20;0.20;;;;;;;8.85;88.09;99090.13;5083537;28;20461;-73
2021/11/02 09:09:50;;;;;;;0.20;0.20;;;;;;;8.89;87.61;99084.81;5083485;28;20059;-73
2021/11/02 09:12:16;;;;;;;3.30;1.67;;;;;;;8.90;87.99;99094.28;5083596;28;20051;-73
2021/11/02 09:14:44;;;;;;;0.40;0.40;;;;;;;9.29;85.64;99106.34;5082358;28;20192;-73
2021/11/02 09:17:12;;;;;;;0.65;0.65;;;;;;;9.18;85.93;99093.63;5083613;28;20028;-73
2021/11/02 09:19:39;;;;;;;0.40;0.40;;;;;;;9.33;84.75;99088.16;5083346;28;20036;-74
2021/11/02 09:22:07;;;;;;;1.10;1.10;;;;;;;9.29;84.61;99095.13;5081636;28;20028;-73
2021/11/02 09:24:34;;;;;;;0.30;0.30;;;;;;;9.02;86.19;99087.13;5083674;28;20024;-73
2021/11/02 09:27:02;;;;;;;0.30;0.30;;;;;;;9.18;86.08;99097.97;5082925;28;20025;-74
2021/11/02 09:29:28;;;;;;;0.30;0.30;;;;;;;9.23;85.34;99090.97;5083570;28;20069;-74
2021/11/02 09:31:57;;;;;;;0.30;0.30;;;;;;;9.10;85.69;99085.22;5081834;28;20020;-73
2021/11/02 09:34:24;;;;;;;0.30;0.30;;;;;;;9.24;85.20;99091.78;5082846;28;20045;-74
2021/11/02 09:36:59;;;;;;;0.30;0.30;;;;;;;9.23;84.85;99080.59;5082806;28;20048;-74
2021/11/02 09:39:27;;;;;;;0.52;0.52;;;;;;;9.26;84.94;99090.88;5083091;28;20028;-73
2021/11/02 09:42:11;;;;;;;0.38;0.38;;;;;;;9.29;84.55;99087.34;5082882;28;20020;-73
2021/11/02 09:44:50;;;;;;;0.30;0.30;;;;;;;9.17;85.39;99081.59;5083330;28;20032;-71
2021/11/02 09:47:31;;;;;;;0.75;0.75;;;;;;;9.35;84.96;99079.44;5083140;28;20020;-75
2021/11/02 09:50:27;;;;;;;0.20;0.20;;;;;;;9.26;85.90;99079.66;5098481;28;20027;-75
2021/11/02 09:53:14;;;;;;;0.30;0.30;;;;;;;9.35;86.19;99078.56;5082512;28;20024;-75
2021/11/02 09:56:12;;;;;;;0.20;0.20;;;;;;;9.30;85.86;99070.91;5084809;28;20024;-74
2021/11/02 09:59:03;;;;;;;0.77;0.77;;;;;;;9.36;85.98;99083.72;5086982;28;20102;-74
2021/11/02 10:02:03;;;;;;;0.30;0.30;;;;;;;9.36;86.75;99073.34;5077151;28;20043;-70
2021/11/02 10:05:00;;;;;;;0.28;0.28;;;;;;;9.55;85.29;99076.34;5086521;28;20091;-75
2021/11/02 10:07:50;;;;;;;0.30;0.30;;;;;;;9.46;85.36;99068.78;5086949;28;20032;-75
2021/11/02 10:10:21;;;;;;;1.63;1.52;;;;;;;9.47;85.26;99078.28;5086783;28;20020;-74
2021/11/02 10:13:22;;;;;;;1.33;1.23;;;;;;;9.57;85.20;99078.06;5086986;28;20020;-74
2021/11/02 10:15:59;;;;;;;0.30;0.30;;;;;;;9.62;85.07;99070.97;5086755;28;20020;-74
2021/11/02 10:19:02;;;;;;;0.30;0.30;;;;;;;9.67;84.23;99069.13;5086669;28;20467;-74
2021/11/02 10:21:34;;;;;;;0.30;0.30;;;;;;;9.70;85.69;99065.59;5085202;28;20115;-75
2021/11/02 10:24:26;;;;;;;0.40;0.40;;;;;;;9.87;84.28;99062.56;5086467;28;20033;-74
2021/11/02 10:27:16;;;;;;;0.60;0.60;;;;;;;9.89;83.97;99064.22;5086514;28;20036;-75
2021/11/02 10:29:43;;;;;;;0.30;0.30;;;;;;;9.91;83.65;99059.84;5086640;28;20017;-74
2021/11/02 10:32:16;;;;;;;0.30;0.30;;;;;;;9.98;82.74;99064.88;5086209;28;20035;-73
2021/11/02 10:34:41;;;;;;;0.20;0.20;;;;;;;9.97;82.91;99053.63;5086234;28;20036;-74
2021/11/02 10:37:22;;;;;;;0.30;0.30;;;;;;;10.04;82.73;99059.50;5085881;28;20025;-73
2021/11/02 10:40:04;;;;;;;0.30;0.30;;;;;;;10.31;80.85;99054.44;5086051;28;20017;-74
2021/11/02 10:43:04;;;;;;;0.20;0.20;;;;;;;10.13;81.19;99051.47;5085973;28;20104;-74
2021/11/02 10:45:42;;;;;;;0.20;0.20;;;;;;;9.98;81.78;99046.72;5085945;28;20043;-74
2021/11/02 10:48:10;;;;;;;0.30;0.30;;;;;;;9.89;82.59;99047.81;5086130;28;20100;-73
2021/11/02 10:50:40;;;;;;;0.25;0.25;;;;;;;10.02;82.32;99051.78;5086117;28;20032;-75
2021/11/02 10:53:07;;;;;;;0.30;0.30;;;;;;;9.98;82.21;99047.59;5085614;28;20013;-74
2021/11/02 10:55:40;;;;;;;0.30;0.30;;;;;;;9.99;82.40;99045.81;5085895;28;20020;-74
2021/11/02 10:58:12;;;;;;;0.30;0.30;;;;;;;9.99;82.42;99046.69;5085621;28;20013;-74
2021/11/02 11:00:37;;;;;;;0.40;0.40;;;;;;;9.95;82.91;99045.06;5085791;28;20029;-73
2021/11/02 11:03:07;;;;;;;0.40;0.40;;;;;;;10.03;82.54;99039.69;5085738;28;20040;-74
2021/11/02 11:05:33;;;;;;;0.50;0.50;;;;;;;9.89;83.02;99024.47;5085830;28;20040;-73
2021/11/02 11:08:01;;;;;;;0.30;0.30;;;;;;;10.05;82.21;99027.50;5084702;28;20050;-73
2021/11/02 11:10:28;;;;;;;0.30;0.30;;;;;;;9.95;82.66;99029.53;5085700;28;20025;-74
2021/11/02 11:12:56;;;;;;;0.30;0.30;;;;;;;10.12;81.63;99034.22;5085533;28;20013;-74
2021/11/02 11:15:26;;;;;;;0.30;0.30;;;;;;;9.93;82.50;99028.72;5085777;28;20083;-75
2021/11/02 11:18:01;;;;;;;0.57;0.57;;;;;;;9.98;82.73;99032.03;5101114;28;20028;-74
2021/11/02 11:20:27;;;;;;;0.30;0.30;;;;;;;9.92;82.58;99021.81;5085645;28;20031;-73
2021/11/02 11:22:54;;;;;;;0.47;0.47;;;;;;;9.97;82.84;99029.47;5084773;28;20029;-74
2021/11/02 11:25:22;;;;;;;0.30;0.30;;;;;;;9.97;83.65;99032.91;5085342;28;20016;-74
2021/11/02 11:27:55;;;;;;;0.30;0.30;;;;;;;9.91;83.65;99026.16;5084452;28;20039;-73
2021/11/02 11:30:25;;;;;;;0.20;0.20;;;;;;;10.07;83.49;99035.22;5083764;28;20016;-73
2021/11/02 11:32:51;;;;;;;0.30;0.30;;;;;;;10.10;82.74;99028.22;5085119;28;20064;-74
2021/11/02 11:35:16;;;;;;;0.30;0.30;;;;;;;9.98;82.70;99016.47;5085362;28;20027;-74
2021/11/02 11:37:44;;;;;;;0.30;0.30;;;;;;;10.02;82.85;99027.59;5100606;28;20024;-74
2021/11/02 11:40:23;;;;;;;0.38;0.38;;;;;;;10.06;83.40;99033.53;5085391;28;20020;-74
2021/11/02 11:42:52;;;;;;;0.35;0.35;;;;;;;10.06;83.44;99020.56;5085243;28;20029;-74
2021/11/02 11:45:22;;;;;;;0.20;0.20;;;;;;;10.23;82.98;99025.25;5083987;28;20020;-73
2021/11/02 11:48:03;;;;;;;0.30;0.30;;;;;;;10.23;82.34;99030.44;5085127;28;20052;-74
2021/11/02 11:50:30;;;;;;;0.40;0.40;;;;;;;10.35;81.87;99034.44;5085299;28;20035;-73
2021/11/02 11:53:02;;;;;;;0.30;0.30;;;;;;;10.21;82.19;99024.47;5084738;28;20028;-74
2021/11/02 11:55:30;;;;;;;0.30;0.30;;;;;;;10.29;81.38;99038.06;5084845;28;20024;-74
2021/11/02 11:58:04;;;;;;;0.40;0.40;;;;;;;10.28;81.07;99031.19;5084893;28;20020;-73
2021/11/02 12:00:31;;;;;;;0.30;0.30;;;;;;;10.26;81.01;99026.03;5084752;28;20088;-73
2021/11/02 12:03:29;;;;;;;0.30;0.30;;;;;;;10.12;82.02;99031.63;5100297;28;20036;-74
2021/11/02 12:06:06;;;;;;;0.73;0.73;;;;;;;10.10;83.07;99028.22;5084131;28;20056;-74
2021/11/02 12:08:52;;;;;;;0.30;0.30;;;;;;;10.33;81.63;99031.91;5084685;28;20032;-74
2021/11/02 12:11:23;;;;;;;0.20;0.20;;;;;;;10.29;81.55;99025.94;5100249;28;20451;-74
2021/11/02 12:13:54;;;;;;;0.30;0.30;;;;;;;10.29;81.92;99023.34;5084618;28;20107;-74
2021/11/02 12:16:27;;;;;;;0.55;0.55;;;;;;;10.26;82.37;99015.66;5084545;28;20444;-74
2021/11/02 12:19:15;;;;;;;0.40;0.40;;;;;;;10.29;82.60;99015.56;5099612;28;20052;-73
2021/11/02 12:21:43;;;;;;;0.30;0.30;;;;;;;10.40;81.94;99020.44;5082854;28;20111;-74
2021/11/02 12:24:12;;;;;;;0.30;0.30;;;;;;;10.35;82.42;99030.09;5084281;28;20385;-74
2021/11/02 12:26:42;;;;;;;0.30;0.30;;;;;;;10.36;82.47;99011.06;5084229;28;20031;-73
2021/11/02 12:29:17;;;;;;;0.30;0.30;;;;;;;10.38;82.35;99017.03;5084163;28;20031;-73
2021/11/02 12:31:45;;;;;;;0.45;0.45;;;;;;;10.36;82.62;99017.97;5084316;28;20040;-73
2021/11/02 12:34:12;;;;;;;0.28;0.28;;;;;;;10.38;83.70;99009.25;5084072;28;20158;-74
2021/11/02 12:36:48;;;;;;;0.20;0.20;;;;;;;10.46;84.04;99011.66;5082372;28;20480;-73
2021/11/02 12:39:17;;;;;;;0.28;0.28;;;;;;;10.69;84.57;99022.22;5084033;28;20023;-74
2021/11/02 12:41:58;;;;;;;0.60;0.60;;;;;;;10.83;84.82;99020.03;5099542;28;20378;-74
2021/11/02 12:44:28;;;;;;;0.30;0.30;;;;;;;10.89;84.79;99014.63;5083852;28;20029;-73
2021/11/02 12:46:54;;;;;;;0.77;0.77;;;;;;;10.92;84.54;99016.28;5083823;28;20080;-74
2021/11/02 12:49:38;;;;;;;0.38;0.38;;;;;;;10.92;82.78;99018.91;5083805;28;20080;-73
2021/11/02 12:52:06;;;;;;;0.30;0.30;;;;;;;10.81;82.23;99015.78;5083574;28;20039;-73
2021/11/02 12:54:33;;;;;;;0.20;0.20;;;;;;;10.75;82.37;99022.03;5083675;28;20080;-75
2021/11/02 12:57:13;;;;;;;0.30;0.30;;;;;;;10.71;82.57;99025.59;5083640;28;20025;-73
2021/11/02 12:59:58;;;;;;;0.30;0.30;;;;;;;10.62;83.21;99024.16;5083460;28;20075;-74
2021/11/02 13:02:43;;;;;;;0.30;0.30;;;;;;;10.78;83.19;99016.75;5083846;28;20395;-74
2021/11/02 13:05:23;;;;;;;0.57;0.57;;;;;;;10.74;82.31;99020.31;5083667;28;20025;-73
2021/11/02 13:08:12;;;;;;;0.35;0.35;;;;;;;10.64;82.40;99028.38;5083329;28;20063;-74
2021/11/02 13:10:40;;;;;;;0.20;0.20;;;;;;;10.59;82.73;99027.69;5083827;28;20020;-73
2021/11/02 13:13:07;;;;;;;0.20;0.20;;;;;;;10.59;83.22;99029.44;5083529;28;20059;-72
2021/11/02 13:15:51;;;;;;;0.30;0.30;;;;;;;10.65;83.09;99029.25;5083463;28;20141;-73
2021/11/02 13:18:39;;;;;;;0.30;0.30;;;;;;;10.61;82.97;99018.09;5083324;28;20399;-73
2021/11/02 13:21:25;;;;;;;3.35;3.05;;;;;;;10.62;83.41;99021.56;5083325;28;20031;-74
2021/11/02 13:24:07;;;;;;;0.30;0.30;;;;;;;10.61;83.21;99023.31;5083245;28;20028;-74
2021/11/02 13:26:33;;;;;;;0.30;0.30;;;;;;;10.64;83.83;99014.56;5083316;28;20032;-74
2021/11/02 13:29:22;;;;;;;1.20;1.20;;;;;;;10.70;83.64;99017.00;5083262;28;20085;-74
2021/11/02 13:31:49;;;;;;;0.20;0.20;;;;;;;10.70;83.30;99013.53;5083010;28;20028;-74
2021/11/02 13:34:17;;;;;;;0.30;0.30;;;;;;;10.71;83.92;99017.81;5083022;28;20098;-74
2021/11/02 13:36:43;;;;;;;0.20;0.20;;;;;;;10.70;84.78;99013.53;5083034;28;20020;-74
2021/11/02 13:39:11;;;;;;;0.20;0.20;;;;;;;10.81;84.87;99023.56;5083838;28;20028;-75
2021/11/02 13:41:46;;;;;;;0.30;0.30;;;;;;;10.93;85.38;99015.38;5083426;28;20020;-74
2021/11/02 13:44:12;;;;;;;0.30;0.30;;;;;;;11.00;85.65;99016.91;5083233;28;20016;-75
2021/11/02 13:46:41;;;;;;;0.98;0.98;;;;;;;11.03;84.09;99015.94;5083116;28;20063;-74
2021/11/02 13:49:08;;;;;;;0.35;0.35;;;;;;;10.97;83.86;99016.16;5083174;28;20059;-73
2021/11/02 13:51:34;;;;;;;0.40;0.40;;;;;;;10.90;83.29;99003.38;5098407;28;20123;-73
2021/11/02 13:54:00;;;;;;;0.30;0.30;;;;;;;10.78;84.25;99006.34;5082911;28;20052;-73
2021/11/02 13:56:34;;;;;;;0.30;0.30;;;;;;;10.80;83.33;99014.09;5083169;28;20024;-73
2021/11/02 13:59:01;;;;;;;0.30;0.30;;;;;;;10.72;83.56;99016.94;5083202;28;20020;-73
2021/11/02 14:01:40;;;;;;;0.30;0.30;;;;;;;10.64;84.64;99004.16;5082866;28;20055;-73
2021/11/02 14:04:08;;;;;;;0.98;0.98;;;;;;;10.71;83.91;99016.06;5082969;28;20282;-73
2021/11/02 14:06:37;;;;;;;0.30;0.30;;;;;;;10.61;83.48;99018.09;5082787;28;20047;-73
2021/11/02 14:09:05;;;;;;;0.20;0.20;;;;;;;10.48;83.15;99003.81;5082801;28;20024;-74
2021/11/02 14:11:34;;;;;;;0.50;0.50;;;;;;;10.59;82.40;99014.69;5082822;28;20050;-73
2021/11/02 14:14:02;;;;;;;0.30;0.30;;;;;;;10.44;82.32;99013.41;5082704;28;20034;-75
2021/11/02 14:16:46;;;;;;;0.30;0.30;;;;;;;10.35;82.88;99014.53;5081269;28;20115;-74
2021/11/02 14:19:33;;;;;;;0.30;0.30;;;;;;;10.37;83.14;99015.34;5082880;28;20028;-74
2021/11/02 14:22:00;;;;;;;0.20;0.20;;;;;;;10.35;82.92;99009.34;5082569;28;20020;-73
2021/11/02 14:24:33;;;;;;;0.30;0.30;;;;;;;10.23;83.51;99000.19;5082566;28;20047;-74
2021/11/02 14:26:59;;;;;;;0.30;0.30;;;;;;;10.27;83.89;99016.53;5098475;28;20367;-73
2021/11/02 14:29:44;;;;;;;0.38;0.38;;;;;;;10.24;83.85;99014.00;5082694;28;20084;-73
2021/11/02 14:32:10;;;;;;;0.30;0.30;;;;;;;10.25;84.32;99019.16;5082719;28;20092;-73
2021/11/02 14:34:38;;;;;;;0.20;0.20;;;;;;;10.24;84.22;99006.22;5082597;28;20037;-73
2021/11/02 14:37:21;;;;;;;0.20;0.20;;;;;;;10.17;84.70;99006.38;5081395;28;20084;-73
2021/11/02 14:40:06;;;;;;;0.20;0.20;;;;;;;10.22;84.80;99010.59;5082661;28;20031;-72
2021/11/02 14:42:52;;;;;;;0.30;0.30;;;;;;;10.21;83.91;99012.34;5099370;28;20035;-75
2021/11/02 14:45:19;;;;;;;0.73;0.73;;;;;;;10.15;84.04;99013.38;5086084;28;20091;-75
2021/11/02 14:47:46;;;;;;;0.20;0.20;;;;;;;10.09;84.88;99008.38;5086064;28;20058;-74
2021/11/02 14:50:33;;;;;;;0.20;0.20;;;;;;;10.12;84.86;99012.63;5084148;28;20028;-73
2021/11/02 14:53:10;;;;;;;2.05;1.95;;;;;;;10.12;85.27;99016.06;5100516;28;20024;-74
2021/11/02 14:56:07;;;;;;;0.20;0.20;;;;;;;10.10;85.62;99010.06;5085992;28;20017;-73
2021/11/02 14:58:38;;;;;;;0.30;0.30;;;;;;;10.15;84.72;99013.38;5085973;28;20025;-74
2021/11/02 15:01:25;;;;;;;0.20;0.20;;;;;;;10.07;84.41;99002.38;5085877;28;20041;-74
2021/11/02 15:04:00;;;;;;;0.40;0.40;;;;;;;10.01;85.13;99008.59;5078122;28;20040;-73
2021/11/02 15:06:36;;;;;;;0.30;0.30;;;;;;;10.00;85.59;99003.47;5084878;28;20081;-73
2021/11/02 15:09:16;;;;;;;0.50;0.50;;;;;;;9.96;85.70;99001.84;5085463;28;20059;-73
2021/11/02 15:11:43;;;;;;;0.20;0.20;;;;;;;9.85;86.16;98984.84;5085482;28;20558;-74
2021/11/02 15:14:17;;;;;;;0.30;0.30;;;;;;;9.97;86.16;99003.56;5085303;28;20074;-73
2021/11/02 15:16:48;;;;;;;0.30;0.30;;;;;;;9.96;86.01;98996.66;5085381;28;20070;-72
2021/11/02 15:19:15;;;;;;;0.40;0.40;;;;;;;9.94;86.31;98998.44;5085368;28;20030;-72
2021/11/02 15:21:44;;;;;;;0.30;0.30;;;;;;;9.92;86.51;98996.75;5085142;28;20017;-72
2021/11/02 15:24:29;;;;;;;0.90;0.90;;;;;;;9.85;86.56;98994.38;5085202;28;20020;-73
2021/11/02 15:26:58;;;;;;;0.60;0.60;;;;;;;9.79;86.88;98990.22;5100922;28;20033;-74
2021/11/02 15:29:29;;;;;;;0.20;0.20;;;;;;;9.88;86.71;99002.06;5085215;28;20021;-74
2021/11/02 15:32:02;;;;;;;0.30;0.30;;;;;;;9.91;86.68;99005.41;5085326;28;20043;-73
2021/11/02 15:34:49;;;;;;;0.30;0.30;;;;;;;9.88;87.06;99009.84;5085185;28;20067;-73
2021/11/02 15:37:19;;;;;;;0.30;0.30;;;;;;;9.88;87.02;99009.84;5100700;28;20036;-73
2021/11/02 15:39:54;;;;;;;0.30;0.30;;;;;;;9.86;86.83;99009.00;5085468;28;20030;-73
2021/11/02 15:42:43;;;;;;;0.30;0.30;;;;;;;9.81;86.90;99008.31;5084964;28;20028;-72
2021/11/02 15:45:30;;;;;;;0.30;0.30;;;;;;;9.81;87.40;99010.91;5085063;28;20029;-72
2021/11/02 15:48:05;;;;;;;0.60;0.60;;;;;;;9.80;87.26;99004.88;5100546;28;20023;-73
2021/11/02 15:50:30;;;;;;;0.30;0.30;;;;;;;9.78;87.30;99007.50;5085121;28;20024;-73
2021/11/02 15:52:57;;;;;;;0.30;0.30;;;;;;;9.76;87.28;99011.03;5084007;28;20086;-72
2021/11/02 15:55:24;;;;;;;0.47;0.47;;;;;;;9.76;87.42;99005.84;5084692;28;20514;-73
2021/11/02 15:57:58;;;;;;;0.20;0.20;;;;;;;9.68;87.63;99003.44;5084487;28;20353;-74
2021/11/02 16:00:26;;;;;;;0.30;0.30;;;;;;;9.69;87.63;98996.53;5100294;28;20050;-74
2021/11/02 16:02:53;;;;;;;0.30;0.30;;;;;;;9.71;87.79;99002.53;5084445;28;20029;-74
2021/11/02 16:05:26;;;;;;;0.60;0.60;;;;;;;9.68;87.70;99003.44;5084551;28;20024;-73
2021/11/02 16:08:16;;;;;;;0.20;0.20;;;;;;;9.66;87.86;99000.91;5083827;28;20024;-73
2021/11/02 16:10:43;;;;;;;0.30;0.30;;;;;;;9.60;87.73;98990.69;5078785;28;20032;-73
2021/11/02 16:13:09;;;;;;;0.30;0.30;;;;;;;9.62;87.98;98999.28;5084504;28;20024;-72
2021/11/02 16:15:40;;;;;;;0.20;0.20;;;;;;;9.65;87.67;99008.72;5084395;28;20036;-72
2021/11/02 16:18:18;;;;;;;0.30;0.30;;;;;;;9.60;87.57;98998.47;5099721;28;20021;-74
2021/11/02 16:20:47;;;;;;;1.10;1.00;;;;;;;9.56;87.77;98999.47;5084393;28;20078;-74
2021/11/02 16:23:22;;;;;;;0.52;0.52;;;;;;;9.56;87.80;98996.88;5083978;28;20396;-73
2021/11/02 16:25:50;;;;;;;1.77;1.67;;;;;;;9.53;87.74;98999.53;5084202;28;20552;-72
2021/11/02 16:28:18;;;;;;;0.30;0.30;;;;;;;9.53;87.87;98999.53;5084189;28;20023;-74
2021/11/02 16:30:47;;;;;;;0.30;0.30;;;;;;;9.48;87.96;98988.44;5084023;28;20062;-73
2021/11/02 16:33:14;;;;;;;0.20;0.20;;;;;;;9.51;88.11;98998.72;5083744;28;20048;-74
2021/11/02 16:35:54;;;;;;;0.98;0.98;;;;;;;9.50;88.20;99002.22;5084183;28;20024;-74
2021/11/02 16:38:25;;;;;;;1.23;0.55;;;;;;;9.48;88.35;99006.59;5083733;28;20499;-74
2021/11/02 16:41:17;;;;;;;0.20;0.20;;;;;;;9.49;88.27;98996.19;5099434;28;20040;-73
2021/11/02 16:43:52;;;;;;;0.53;0.53;;;;;;;9.48;88.35;99002.25;5081129;28;20098;-72
2021/11/02 16:46:44;;;;;;;0.20;0.20;;;;;;;9.48;88.35;99004.00;5084027;28;20264;-72
2021/11/02 16:49:11;;;;;;;0.40;0.40;;;;;;;9.45;88.40;99002.34;5079039;28;20037;-72
2021/11/02 16:51:44;;;;;;;0.30;0.30;;;;;;;9.47;88.59;98999.72;5098816;28;20028;-72
2021/11/02 16:54:14;;;;;;;0.30;0.30;;;;;;;9.47;88.59;99005.75;5083459;28;20032;-72
2021/11/02 16:57:17;;;;;;;0.50;0.50;;;;;;;9.47;88.81;99002.31;5083790;28;20360;-73
2021/11/02 17:00:01;;;;;;;0.20;0.20;;;;;;;9.48;88.86;98996.22;5083394;28;20024;-73
2021/11/02 17:02:35;;;;;;;0.30;0.30;;;;;;;9.47;88.50;98995.41;5083471;28;20012;-72
2021/11/02 17:05:13;;;;;;;0.30;0.30;;;;;;;9.45;88.78;99004.94;5098251;28;20024;-72
2021/11/02 17:07:44;;;;;;;0.47;0.47;;;;;;;9.44;88.79;99004.97;5098611;28;20027;-72